createdAt,value
2019-03-16T00:01:37.676Z,4.20
2019-03-16T00:04:06.945Z,5.03
2019-03-16T00:06:36.131Z,4.10
2019-03-16T00:09:07.927Z,3.00
2019-03-16T00:11:37.196Z,4.80
2019-03-16T00:14:06.337Z,4.60
2019-03-16T00:16:35.561Z,3.70
2019-03-16T00:19:04.768Z,4.13
2019-03-16T00:21:34.008Z,4.53
2019-03-16T00:24:03.187Z,3.87
2019-03-16T00:26:32.404Z,4.63
2019-03-16T00:29:01.685Z,3.87
2019-03-16T00:31:30.880Z,4.40
2019-03-16T00:34:00.091Z,3.83
2019-03-16T00:36:29.288Z,3.80
2019-03-16T00:38:58.565Z,3.93
2019-03-16T00:41:27.885Z,3.83
2019-03-16T00:43:57.130Z,3.17
2019-03-16T00:46:26.425Z,4.13
2019-03-16T00:48:55.629Z,3.73
2019-03-16T00:51:24.847Z,3.47
2019-03-16T00:53:54.071Z,4.07
2019-03-16T00:56:23.279Z,3.70
2019-03-16T00:58:52.503Z,3.30
2019-03-16T01:01:21.752Z,3.77
2019-03-16T01:03:51.079Z,4.10
2019-03-16T01:06:20.315Z,3.90
2019-03-16T01:08:49.548Z,3.63
2019-03-16T01:11:18.751Z,3.90
2019-03-16T01:13:47.956Z,3.60
2019-03-16T01:16:17.168Z,4.07
2019-03-16T01:18:46.372Z,3.60
2019-03-16T01:21:15.579Z,4.27
2019-03-16T01:23:44.767Z,3.70
2019-03-16T01:26:13.995Z,4.03
2019-03-16T01:28:43.204Z,3.30
2019-03-16T01:31:12.411Z,4.30
2019-03-16T01:33:41.627Z,4.27
2019-03-16T01:36:10.845Z,4.00
2019-03-16T01:38:40.059Z,3.63
2019-03-16T01:41:09.283Z,4.87
2019-03-16T01:43:38.515Z,3.53
2019-03-16T01:46:07.760Z,4.03
2019-03-16T01:48:37.010Z,4.97
2019-03-16T01:51:06.205Z,4.10
2019-03-16T01:53:35.423Z,4.67
2019-03-16T01:56:04.635Z,4.37
2019-03-16T01:58:33.826Z,4.80
2019-03-16T02:01:03.235Z,4.17
2019-03-16T02:03:32.500Z,3.60
2019-03-16T02:06:01.671Z,3.50
2019-03-16T02:08:30.872Z,3.80
2019-03-16T02:11:00.099Z,3.57
2019-03-16T02:13:29.317Z,3.60
2019-03-16T02:16:10.400Z,3.80
2019-03-16T02:18:29.392Z,4.23
2019-03-16T02:20:58.619Z,4.03
2019-03-16T02:23:27.811Z,2.73
2019-03-16T02:25:57.036Z,3.40
2019-03-16T02:28:26.243Z,5.67
2019-03-16T02:30:55.478Z,3.47
2019-03-16T02:33:24.677Z,3.97
2019-03-16T02:35:53.890Z,4.33
2019-03-16T02:38:23.088Z,4.10
2019-03-16T02:40:52.325Z,4.10
2019-03-16T02:43:21.511Z,4.30
2019-03-16T02:45:50.741Z,4.43
2019-03-16T02:48:19.943Z,3.97
2019-03-16T02:50:49.154Z,3.53
2019-03-16T02:53:18.348Z,3.73
2019-03-16T02:55:47.611Z,3.83
2019-03-16T02:58:16.812Z,4.10
2019-03-16T03:00:46.019Z,4.70
2019-03-16T03:03:28.549Z,4.07
2019-03-16T03:05:46.120Z,4.20
2019-03-16T03:08:15.344Z,3.40
2019-03-16T03:10:44.610Z,4.27
2019-03-16T03:13:14.422Z,3.40
2019-03-16T03:15:43.744Z,4.77
2019-03-16T03:18:12.963Z,4.13
2019-03-16T03:20:42.216Z,4.80
2019-03-16T03:23:11.397Z,4.40
2019-03-16T03:25:40.617Z,4.53
2019-03-16T03:28:09.815Z,5.57
2019-03-16T03:30:39.044Z,4.43
2019-03-16T03:33:08.240Z,3.53
2019-03-16T03:35:37.440Z,4.67
2019-03-16T03:38:06.642Z,3.77
2019-03-16T03:40:35.859Z,3.77
2019-03-16T03:43:05.053Z,3.77
2019-03-16T03:45:34.291Z,3.43
2019-03-16T03:48:03.419Z,4.60
2019-03-16T03:50:32.652Z,3.30
2019-03-16T03:53:01.856Z,4.47
2019-03-16T03:55:31.147Z,4.20
2019-03-16T03:58:00.306Z,4.10
2019-03-16T04:00:29.507Z,3.77
2019-03-16T04:02:58.687Z,5.77
2019-03-16T04:05:27.919Z,3.93
2019-03-16T04:07:57.147Z,3.53
2019-03-16T04:10:26.356Z,5.03
2019-03-16T04:12:55.559Z,5.37
2019-03-16T04:15:24.828Z,4.70
2019-03-16T04:17:57.077Z,4.23
2019-03-16T04:20:26.287Z,4.00
2019-03-16T04:22:55.552Z,3.90
2019-03-16T04:25:24.825Z,4.30
2019-03-16T04:27:54.035Z,3.67
2019-03-16T04:30:23.328Z,3.80
2019-03-16T04:32:52.539Z,3.80
2019-03-16T04:35:21.784Z,3.87
2019-03-16T04:37:51.023Z,3.70
2019-03-16T04:40:20.219Z,3.20
2019-03-16T04:42:49.424Z,4.27
2019-03-16T04:45:18.679Z,3.77
2019-03-16T04:47:47.869Z,5.17
2019-03-16T04:50:17.177Z,4.13
2019-03-16T04:52:46.382Z,4.47
2019-03-16T04:55:15.650Z,4.03
2019-03-16T04:57:44.880Z,4.47
2019-03-16T05:00:14.100Z,3.40
2019-03-16T05:02:43.325Z,4.33
2019-03-16T05:05:12.538Z,3.63
2019-03-16T05:07:41.763Z,4.03
2019-03-16T05:10:10.960Z,3.50
2019-03-16T05:12:40.196Z,4.10
2019-03-16T05:15:09.603Z,3.87
2019-03-16T05:17:38.823Z,3.67
2019-03-16T05:20:08.640Z,3.43
2019-03-16T05:22:37.852Z,3.87
2019-03-16T05:25:07.597Z,4.03
2019-03-16T05:27:36.811Z,4.10
2019-03-16T05:30:07.036Z,3.70
2019-03-16T05:32:36.228Z,3.57
2019-03-16T05:35:05.860Z,3.53
2019-03-16T05:37:35.071Z,3.10
2019-03-16T05:40:04.488Z,3.93
2019-03-16T05:42:33.698Z,3.77
2019-03-16T05:45:02.975Z,3.73
2019-03-16T05:47:32.231Z,3.93
2019-03-16T05:50:01.518Z,3.17
2019-03-16T05:52:30.749Z,3.43
2019-03-16T05:55:00.035Z,3.37
2019-03-16T05:57:29.259Z,3.53
2019-03-16T05:59:58.463Z,3.77
2019-03-16T06:02:27.660Z,3.60
2019-03-16T06:05:09.433Z,3.23
2019-03-16T06:07:27.719Z,3.47
2019-03-16T06:09:56.958Z,2.57
2019-03-16T06:12:26.267Z,3.37
2019-03-16T06:14:55.495Z,3.33
2019-03-16T06:17:24.696Z,3.60
2019-03-16T06:19:53.911Z,3.97
2019-03-16T06:22:23.123Z,3.77
2019-03-16T06:24:52.347Z,3.03
2019-03-16T06:27:21.552Z,3.43
2019-03-16T06:29:50.811Z,3.60
2019-03-16T06:32:20.283Z,2.87
2019-03-16T06:34:49.488Z,3.20
2019-03-16T06:37:18.727Z,3.20
2019-03-16T06:39:47.919Z,3.50
2019-03-16T06:42:17.132Z,2.97
2019-03-16T06:44:46.395Z,4.27
2019-03-16T06:47:15.774Z,2.60
2019-03-16T06:49:44.947Z,2.90
2019-03-16T06:52:14.499Z,2.97
2019-03-16T06:54:43.709Z,3.47
2019-03-16T06:57:12.939Z,3.07
2019-03-16T06:59:42.192Z,2.27
2019-03-16T07:02:11.387Z,2.77
2019-03-16T07:04:40.596Z,3.17
2019-03-16T07:07:09.843Z,3.13
2019-03-16T07:09:39.126Z,3.07
2019-03-16T07:12:08.316Z,3.50
2019-03-16T07:14:37.568Z,3.00
2019-03-16T07:17:06.766Z,2.80
2019-03-16T07:19:36.012Z,3.53
2019-03-16T07:22:05.205Z,3.97
2019-03-16T07:24:34.480Z,3.90
2019-03-16T07:27:03.694Z,3.00
2019-03-16T07:29:32.897Z,3.03
2019-03-16T07:32:02.155Z,2.80
2019-03-16T07:34:31.387Z,3.80
2019-03-16T07:37:00.689Z,2.43
2019-03-16T07:39:30.500Z,2.70
2019-03-16T07:42:00.680Z,2.93
2019-03-16T07:44:30.045Z,3.60
2019-03-16T07:46:59.228Z,2.70
2019-03-16T07:49:28.449Z,3.80
2019-03-16T07:51:57.664Z,3.47
2019-03-16T07:54:26.875Z,3.40
2019-03-16T07:56:56.107Z,2.90
2019-03-16T07:59:25.340Z,2.50
2019-03-16T08:01:54.538Z,3.10
2019-03-16T08:04:23.848Z,3.10
2019-03-16T08:06:53.077Z,3.33
2019-03-16T08:09:22.395Z,3.30
2019-03-16T08:11:51.576Z,3.97
2019-03-16T08:14:20.837Z,3.13
2019-03-16T08:16:50.111Z,2.67
2019-03-16T08:19:19.459Z,3.27
2019-03-16T08:21:48.659Z,3.10
2019-03-16T08:24:17.871Z,3.43
2019-03-16T08:26:47.112Z,3.27
2019-03-16T08:29:16.323Z,3.37
2019-03-16T08:31:45.617Z,3.77
2019-03-16T08:34:14.838Z,3.33
2019-03-16T08:36:44.051Z,3.07
2019-03-16T08:39:13.367Z,2.90
2019-03-16T08:41:42.535Z,3.63
2019-03-16T08:44:11.775Z,4.00
2019-03-16T08:46:40.972Z,2.73
2019-03-16T08:49:10.168Z,2.83
2019-03-16T08:51:39.400Z,2.83
2019-03-16T08:54:08.618Z,3.57
2019-03-16T08:56:37.900Z,2.97
2019-03-16T08:59:07.126Z,3.20
2019-03-16T09:01:36.355Z,2.60
2019-03-16T09:04:06.211Z,2.50
2019-03-16T09:06:35.492Z,2.43
2019-03-16T09:09:06.881Z,2.57
2019-03-16T09:11:36.775Z,2.97
2019-03-16T09:14:06.084Z,2.43
2019-03-16T09:16:35.311Z,2.30
2019-03-16T09:19:04.720Z,2.63
2019-03-16T09:21:33.941Z,2.40
2019-03-16T09:24:03.128Z,1.90
2019-03-16T09:26:32.384Z,1.80
2019-03-16T09:29:14.022Z,2.03
2019-03-16T09:31:32.549Z,2.47
2019-03-16T09:34:02.171Z,2.23
2019-03-16T09:36:31.472Z,2.37
2019-03-16T09:39:00.713Z,1.47
2019-03-16T09:41:29.941Z,2.90
2019-03-16T09:44:01.882Z,2.97
2019-03-16T09:46:30.143Z,3.67
2019-03-16T09:48:59.449Z,2.83
2019-03-16T09:51:28.733Z,2.77
2019-03-16T09:53:58.075Z,2.20
2019-03-16T09:56:27.380Z,2.20
2019-03-16T09:58:56.628Z,2.60
2019-03-16T10:01:25.949Z,3.60
2019-03-16T10:03:55.147Z,3.47
2019-03-16T10:06:24.366Z,2.50
2019-03-16T10:08:53.575Z,2.57
2019-03-16T10:11:22.840Z,2.70
2019-03-16T10:13:52.069Z,2.77
2019-03-16T10:16:21.233Z,2.40
2019-03-16T10:18:50.772Z,1.87
2019-03-16T10:21:20.048Z,2.10
2019-03-16T10:23:49.340Z,1.73
2019-03-16T10:26:18.589Z,1.73
2019-03-16T10:28:47.888Z,2.10
2019-03-16T10:31:17.171Z,1.57
2019-03-16T10:33:46.322Z,1.70
2019-03-16T10:36:15.590Z,1.83
2019-03-16T10:38:44.794Z,1.23
2019-03-16T10:41:14.043Z,1.27
2019-03-16T10:43:43.400Z,1.03
2019-03-16T10:46:12.703Z,1.20
2019-03-16T10:48:41.889Z,0.90
2019-03-16T10:51:11.090Z,1.20
2019-03-16T10:53:40.422Z,1.10
2019-03-16T10:56:09.599Z,0.90
2019-03-16T10:58:38.821Z,0.73
2019-03-16T11:01:08.042Z,1.00
2019-03-16T11:03:39.461Z,1.10
2019-03-16T11:06:08.349Z,0.90
2019-03-16T11:08:37.758Z,1.10
2019-03-16T11:11:06.923Z,1.30
2019-03-16T11:13:36.151Z,1.00
2019-03-16T11:16:05.363Z,1.30
2019-03-16T11:18:34.571Z,1.40
2019-03-16T11:21:03.751Z,1.40
2019-03-16T11:23:32.960Z,1.37
2019-03-16T11:26:02.168Z,1.20
2019-03-16T11:28:31.344Z,1.40
2019-03-16T11:31:00.536Z,1.40
2019-03-16T11:33:29.731Z,1.30
2019-03-16T11:35:59.024Z,1.30
2019-03-16T11:38:28.443Z,1.10
2019-03-16T11:40:57.696Z,1.17
2019-03-16T11:43:26.895Z,0.90
2019-03-16T11:45:56.139Z,1.53
2019-03-16T11:48:25.484Z,1.20
2019-03-16T11:50:54.688Z,0.90
2019-03-16T11:53:23.963Z,1.23
2019-03-16T11:55:54.447Z,1.13
2019-03-16T11:58:24.052Z,0.97
2019-03-16T12:00:53.260Z,1.30
2019-03-16T12:03:22.591Z,1.43
2019-03-16T12:05:51.763Z,1.67
2019-03-16T12:08:20.959Z,1.40
2019-03-16T12:10:50.156Z,1.33
2019-03-16T12:13:19.961Z,1.40
2019-03-16T12:15:49.407Z,1.20
2019-03-16T12:18:18.640Z,1.60
2019-03-16T12:20:47.944Z,1.30
2019-03-16T12:23:17.143Z,1.60
2019-03-16T12:25:46.335Z,1.20
2019-03-16T12:28:15.635Z,1.37
2019-03-16T12:30:45.015Z,1.50
2019-03-16T12:33:14.223Z,1.20
2019-03-16T12:35:43.574Z,1.30
2019-03-16T12:38:12.775Z,1.10
2019-03-16T12:40:42.015Z,1.10
2019-03-16T12:43:11.203Z,1.23
2019-03-16T12:45:40.436Z,1.80
2019-03-16T12:48:09.616Z,1.97
2019-03-16T12:50:38.946Z,1.47
2019-03-16T12:53:08.207Z,1.50
2019-03-16T12:55:37.870Z,2.00
2019-03-16T12:58:07.256Z,2.00
2019-03-16T13:00:36.536Z,1.60
2019-03-16T13:03:05.976Z,1.60
2019-03-16T13:05:35.192Z,1.70
2019-03-16T13:08:04.454Z,1.60
2019-03-16T13:10:33.643Z,2.03
2019-03-16T13:13:02.858Z,1.80
2019-03-16T13:15:32.067Z,1.70
2019-03-16T13:18:01.282Z,2.10
2019-03-16T13:20:31.404Z,1.80
2019-03-16T13:23:00.622Z,2.20
2019-03-16T13:25:29.806Z,2.30
2019-03-16T13:27:59.052Z,2.30
2019-03-16T13:30:28.228Z,2.23
2019-03-16T13:32:57.429Z,2.27
2019-03-16T13:35:26.665Z,2.60
2019-03-16T13:37:55.861Z,2.40
2019-03-16T13:40:25.091Z,2.53
2019-03-16T13:42:54.285Z,2.80
2019-03-16T13:45:23.511Z,3.17
2019-03-16T13:47:52.757Z,3.00
2019-03-16T13:50:21.945Z,3.57
2019-03-16T13:52:51.693Z,3.13
2019-03-16T13:55:20.946Z,3.10
2019-03-16T13:57:50.231Z,3.20
2019-03-16T14:00:19.764Z,3.30
2019-03-16T14:02:48.972Z,3.30
2019-03-16T14:05:18.165Z,3.40
2019-03-16T14:07:47.479Z,3.97
2019-03-16T14:10:17.495Z,3.77
2019-03-16T14:12:46.733Z,4.23
2019-03-16T14:15:16.032Z,4.10
2019-03-16T14:17:45.473Z,4.63
2019-03-16T14:20:15.171Z,5.40
2019-03-16T14:22:44.401Z,5.70
2019-03-16T14:25:13.620Z,5.63
2019-03-16T14:27:42.833Z,5.50
2019-03-16T14:30:25.569Z,6.33
2019-03-16T14:32:43.871Z,6.57
2019-03-16T14:35:13.060Z,7.17
2019-03-16T14:37:42.328Z,7.83
2019-03-16T14:40:12.673Z,8.00
2019-03-16T14:42:42.141Z,9.13
2019-03-16T14:45:11.382Z,9.37
2019-03-16T14:47:40.615Z,8.83
2019-03-16T14:50:15.957Z,9.90
2019-03-16T14:52:43.824Z,10.70
2019-03-16T14:55:13.023Z,10.97
2019-03-16T14:57:42.376Z,9.90
2019-03-16T15:00:12.903Z,10.87
2019-03-16T15:02:42.127Z,12.27
2019-03-16T15:05:11.289Z,11.53
2019-03-16T15:07:40.479Z,11.93
2019-03-16T15:10:09.911Z,13.23
2019-03-16T15:12:39.129Z,13.63
2019-03-16T15:15:10.043Z,14.03
2019-03-16T15:17:39.329Z,14.23
2019-03-16T15:20:08.780Z,14.63
2019-03-16T15:22:37.985Z,15.63
2019-03-16T15:25:07.327Z,14.97
2019-03-16T15:27:36.524Z,14.83
2019-03-16T15:30:07.699Z,15.80
2019-03-16T15:32:36.901Z,15.93
2019-03-16T15:35:07.227Z,15.30
2019-03-16T15:37:36.427Z,15.23
2019-03-16T15:40:05.880Z,16.13
2019-03-16T15:42:35.079Z,15.53
2019-03-16T15:45:04.877Z,15.70
2019-03-16T15:47:34.092Z,16.33
2019-03-16T15:50:03.317Z,15.60
2019-03-16T15:52:32.609Z,16.97
2019-03-16T15:55:01.826Z,16.57
2019-03-16T15:57:31.076Z,17.60
2019-03-16T16:00:00.379Z,16.27
2019-03-16T16:02:29.540Z,16.87
2019-03-16T16:04:58.780Z,17.10
2019-03-16T16:07:27.977Z,16.57
2019-03-16T16:09:57.219Z,16.40
2019-03-16T16:12:26.408Z,16.63
2019-03-16T16:14:55.603Z,15.80
2019-03-16T16:17:24.825Z,16.80
2019-03-16T16:19:54.031Z,16.27
2019-03-16T16:22:23.319Z,13.97
2019-03-16T16:24:52.530Z,15.10
2019-03-16T16:27:23.990Z,16.17
2019-03-16T16:29:52.676Z,17.67
2019-03-16T16:32:21.911Z,14.07
2019-03-16T16:34:51.132Z,15.30
2019-03-16T16:37:20.347Z,17.37
2019-03-16T16:39:49.559Z,17.47
2019-03-16T16:42:18.772Z,16.87
2019-03-16T16:44:48.157Z,15.53
2019-03-16T16:47:17.318Z,16.80
2019-03-16T16:49:46.505Z,14.50
2019-03-16T16:52:15.825Z,14.40
2019-03-16T16:54:44.943Z,13.73
2019-03-16T16:57:14.292Z,13.40
2019-03-16T16:59:43.536Z,14.17
2019-03-16T17:02:12.832Z,14.17
2019-03-16T17:04:42.044Z,14.20
2019-03-16T17:07:11.295Z,12.07
2019-03-16T17:09:40.495Z,13.10
2019-03-16T17:12:09.700Z,13.23
2019-03-16T17:14:38.932Z,11.80
2019-03-16T17:17:08.140Z,11.50
2019-03-16T17:19:37.403Z,10.70
2019-03-16T17:22:06.605Z,11.07
2019-03-16T17:24:35.843Z,10.53
2019-03-16T17:27:05.142Z,9.17
2019-03-16T17:29:34.380Z,9.30
2019-03-16T17:32:03.612Z,9.00
2019-03-16T17:34:32.833Z,8.60
2019-03-16T17:37:02.047Z,8.93
2019-03-16T17:39:31.232Z,9.13
2019-03-16T17:42:00.463Z,8.27
2019-03-16T17:44:29.780Z,8.33
2019-03-16T17:46:58.984Z,8.57
2019-03-16T17:49:28.175Z,8.13
2019-03-16T17:51:58.170Z,9.13
2019-03-16T17:54:27.568Z,8.40
2019-03-16T17:56:56.786Z,8.43
2019-03-16T17:59:25.963Z,9.80
2019-03-16T18:01:55.295Z,9.47
2019-03-16T18:04:24.478Z,9.40
2019-03-16T18:06:53.680Z,9.87
2019-03-16T18:09:22.877Z,9.53
2019-03-16T18:11:52.182Z,9.47
2019-03-16T18:14:21.415Z,8.67
2019-03-16T18:16:50.612Z,8.80
2019-03-16T18:19:19.887Z,9.63
2019-03-16T18:21:49.202Z,9.53
2019-03-16T18:24:18.400Z,8.40
2019-03-16T18:26:47.659Z,7.60
2019-03-16T18:29:16.860Z,8.07
2019-03-16T18:31:46.083Z,7.37
2019-03-16T18:34:15.355Z,6.37
2019-03-16T18:36:44.706Z,6.63
2019-03-16T18:39:13.989Z,5.83
2019-03-16T18:41:43.183Z,5.00
2019-03-16T18:44:12.431Z,6.53
2019-03-16T18:46:41.596Z,5.73
2019-03-16T18:49:10.842Z,4.57
2019-03-16T18:51:40.048Z,5.00
2019-03-16T18:54:09.264Z,4.83
2019-03-16T18:56:38.459Z,4.83
2019-03-16T18:59:09.234Z,5.10
2019-03-16T19:01:38.619Z,4.17
2019-03-16T19:04:07.796Z,3.90
2019-03-16T19:06:37.031Z,3.80
2019-03-16T19:09:08.130Z,3.87
2019-03-16T19:11:37.350Z,3.63
2019-03-16T19:14:06.556Z,3.30
2019-03-16T19:16:35.820Z,3.23
2019-03-16T19:19:05.033Z,3.13
2019-03-16T19:21:34.359Z,3.10
2019-03-16T19:24:03.654Z,2.50
2019-03-16T19:26:32.898Z,2.80
2019-03-16T19:29:02.070Z,2.90
2019-03-16T19:31:31.318Z,2.90
2019-03-16T19:34:00.526Z,2.53
2019-03-16T19:36:29.768Z,2.40
2019-03-16T19:38:58.984Z,2.40
2019-03-16T19:41:28.200Z,2.90
2019-03-16T19:43:57.472Z,2.73
2019-03-16T19:46:26.656Z,2.00
2019-03-16T19:48:55.877Z,2.50
2019-03-16T19:51:25.095Z,2.77
2019-03-16T19:53:54.343Z,2.37
2019-03-16T19:56:23.518Z,2.20
2019-03-16T19:59:00.530Z,2.40
2019-03-16T20:01:23.609Z,2.70
2019-03-16T20:03:52.799Z,2.90
2019-03-16T20:06:25.915Z,3.03
2019-03-16T20:08:52.858Z,2.00
2019-03-16T20:11:22.099Z,2.83
2019-03-16T20:13:51.316Z,2.57
2019-03-16T20:16:20.507Z,1.90
2019-03-16T20:18:50.123Z,2.33
2019-03-16T20:21:19.342Z,1.97
2019-03-16T20:23:48.580Z,2.43
2019-03-16T20:26:17.771Z,2.33
2019-03-16T20:28:47.059Z,2.10
2019-03-16T20:31:16.265Z,2.57
2019-03-16T20:33:46.503Z,2.00
2019-03-16T20:36:16.275Z,2.40
2019-03-16T20:38:46.670Z,2.13
2019-03-16T20:41:17.258Z,2.83
2019-03-16T20:43:47.808Z,2.30
2019-03-16T20:46:17.419Z,2.10
2019-03-16T20:48:47.052Z,2.10
2019-03-16T20:51:17.245Z,2.07
2019-03-16T20:53:47.065Z,2.40
2019-03-16T20:56:17.127Z,1.93
2019-03-16T20:58:47.474Z,2.20
2019-03-16T21:01:17.283Z,2.33
2019-03-16T21:03:47.803Z,1.97
2019-03-16T21:06:18.486Z,2.53
2019-03-16T21:08:48.411Z,1.93
2019-03-16T21:11:18.313Z,1.80
2019-03-16T21:13:47.959Z,2.23
2019-03-16T21:16:18.076Z,1.93
2019-03-16T21:18:48.577Z,1.60
2019-03-16T21:21:18.762Z,1.90
2019-03-16T21:23:49.009Z,1.87
2019-03-16T21:26:19.119Z,2.03
2019-03-16T21:28:48.951Z,1.77
2019-03-16T21:31:19.201Z,3.13
2019-03-16T21:33:49.076Z,2.70
2019-03-16T21:36:18.291Z,1.87
2019-03-16T21:38:47.484Z,1.83
2019-03-16T21:41:16.797Z,2.23
2019-03-16T21:43:46.017Z,2.07
2019-03-16T21:46:15.274Z,2.07
2019-03-16T21:48:44.504Z,1.93
2019-03-16T21:51:13.815Z,2.33
2019-03-16T21:53:43.028Z,2.63
2019-03-16T21:56:12.259Z,2.00
2019-03-16T21:58:41.456Z,2.17
2019-03-16T22:01:10.717Z,2.20
2019-03-16T22:03:41.826Z,2.07
2019-03-16T22:06:10.775Z,1.93
2019-03-16T22:08:39.990Z,2.53
2019-03-16T22:11:09.188Z,2.50
2019-03-16T22:13:38.853Z,2.27
2019-03-16T22:16:08.063Z,2.47
2019-03-16T22:18:37.291Z,3.17
2019-03-16T22:21:06.497Z,2.50
2019-03-16T22:23:35.781Z,3.17
2019-03-16T22:26:05.529Z,2.93
2019-03-16T22:28:35.097Z,2.87
2019-03-16T22:31:04.259Z,3.10
2019-03-16T22:33:33.540Z,3.03
2019-03-16T22:36:02.687Z,3.30
2019-03-16T22:38:31.934Z,2.70
2019-03-16T22:41:01.180Z,3.17
2019-03-16T22:43:30.408Z,2.97
2019-03-16T22:45:59.636Z,2.63
2019-03-16T22:48:28.892Z,2.80
2019-03-16T22:50:58.239Z,3.07
2019-03-16T22:53:27.452Z,2.83
2019-03-16T22:55:56.685Z,2.67
2019-03-16T22:58:25.883Z,2.90
2019-03-16T23:00:55.222Z,3.30
2019-03-16T23:03:24.429Z,2.60
2019-03-16T23:05:53.970Z,2.57
2019-03-16T23:08:23.168Z,2.70
2019-03-16T23:10:52.365Z,2.40
2019-03-16T23:13:21.555Z,2.33
2019-03-16T23:15:50.794Z,2.80
2019-03-16T23:18:20.032Z,2.60
2019-03-16T23:20:49.227Z,2.70
2019-03-16T23:23:18.439Z,2.63
2019-03-16T23:25:47.674Z,2.50
2019-03-16T23:28:16.889Z,2.80
2019-03-16T23:30:46.068Z,2.43
2019-03-16T23:33:15.372Z,3.07
2019-03-16T23:35:44.690Z,2.80
2019-03-16T23:38:13.920Z,2.70
2019-03-16T23:40:43.119Z,3.00
2019-03-16T23:43:12.364Z,2.90
2019-03-16T23:45:41.616Z,2.77
2019-03-16T23:48:10.765Z,3.20
2019-03-16T23:50:39.952Z,3.10
2019-03-16T23:53:09.179Z,3.07
2019-03-16T23:55:38.395Z,3.63
2019-03-16T23:58:07.692Z,3.47
